sensor_id;sensor_type;location;lat;lon;timestamp;pressure;altitude;pressure_sealevel;temperature;humidity
65800;BME280;52544;48.116;11.660;2022-07-30T00:01:20;95690.88;;;17.64;100.00
65800;BME280;52544;48.116;11.660;2022-07-30T00:03:45;95694.22;;;17.66;100.00
65800;BME280;52544;48.116;11.660;2022-07-30T00:06:11;95690.03;;;17.72;100.00
65800;BME280;52544;48.116;11.660;2022-07-30T00:08:36;95679.84;;;17.67;100.00
65800;BME280;52544;48.116;11.660;2022-07-30T00:11:01;95677.16;;;17.67;100.00
65800;BME280;52544;48.116;11.660;2022-07-30T00:13:27;95669.13;;;17.67;100.00
65800;BME280;52544;48.116;11.660;2022-07-30T00:15:52;95670.47;;;17.71;100.00
65800;BME280;52544;48.116;11.660;2022-07-30T00:18:18;95667.44;;;17.66;100.00
65800;BME280;52544;48.116;11.660;2022-07-30T00:20:43;95675.97;;;17.70;100.00
65800;BME280;52544;48.116;11.660;2022-07-30T00:23:08;95673.81;;;17.65;100.00
65800;BME280;52544;48.116;11.660;2022-07-30T00:25:34;95685.66;;;17.71;100.00
65800;BME280;52544;48.116;11.660;2022-07-30T00:27:59;95681.34;;;17.62;100.00
65800;BME280;52544;48.116;11.660;2022-07-30T00:30:25;95683.84;;;17.71;100.00
65800;BME280;52544;48.116;11.660;2022-07-30T00:32:50;95670.47;;;17.71;100.00
65800;BME280;52544;48.116;11.660;2022-07-30T00:35:16;95678.16;;;17.66;100.00
65800;BME280;52544;48.116;11.660;2022-07-30T00:37:41;95671.50;;;17.54;100.00
65800;BME280;52544;48.116;11.660;2022-07-30T00:40:07;95668.16;;;17.60;100.00
65800;BME280;52544;48.116;11.660;2022-07-30T00:42:45;95668.81;;;17.54;100.00
65800;BME280;52544;48.116;11.660;2022-07-30T00:45:12;95661.97;;;17.60;100.00
65800;BME280;52544;48.116;11.660;2022-07-30T00:47:38;95655.91;;;17.66;100.00
65800;BME280;52544;48.116;11.660;2022-07-30T00:50:05;95662.47;;;17.63;100.00
65800;BME280;52544;48.116;11.660;2022-07-30T00:52:32;95655.78;;;17.59;100.00
65800;BME280;52544;48.116;11.660;2022-07-30T00:54:59;95658.09;;;17.62;100.00
65800;BME280;52544;48.116;11.660;2022-07-30T00:57:25;95666.47;;;17.67;100.00
65800;BME280;52544;48.116;11.660;2022-07-30T00:59:52;95667.31;;;17.60;100.00
65800;BME280;52544;48.116;11.660;2022-07-30T01:02:18;95660.78;;;17.62;100.00
65800;BME280;52544;48.116;11.660;2022-07-30T01:04:43;95667.13;;;17.61;100.00
65800;BME280;52544;48.116;11.660;2022-07-30T01:07:09;95662.47;;;17.63;100.00
65800;BME280;52544;48.116;11.660;2022-07-30T01:09:35;95665.28;;;17.62;100.00
65800;BME280;52544;48.116;11.660;2022-07-30T01:12:01;95660.97;;;17.61;100.00
65800;BME280;52544;48.116;11.660;2022-07-30T01:14:27;95658.59;;;17.66;100.00
65800;BME280;52544;48.116;11.660;2022-07-30T01:16:53;95663.59;;;17.69;100.00
65800;BME280;52544;48.116;11.660;2022-07-30T01:19:23;95651.25;;;17.60;100.00
65800;BME280;52544;48.116;11.660;2022-07-30T01:22:18;95654.09;;;17.58;100.00
65800;BME280;52544;48.116;11.660;2022-07-30T01:27:22;95652.22;;;17.67;100.00
65800;BME280;52544;48.116;11.660;2022-07-30T01:29:49;95654.06;;;17.66;100.00
65800;BME280;52544;48.116;11.660;2022-07-30T01:32:18;95659.59;;;17.65;100.00
65800;BME280;52544;48.116;11.660;2022-07-30T01:34:46;95646.41;;;17.63;100.00
65800;BME280;52544;48.116;11.660;2022-07-30T01:37:11;95648.06;;;17.64;100.00
65800;BME280;52544;48.116;11.660;2022-07-30T01:39:38;95654.41;;;17.71;100.00
65800;BME280;52544;48.116;11.660;2022-07-30T01:42:06;95652.06;;;17.77;100.00
65800;BME280;52544;48.116;11.660;2022-07-30T01:44:33;95646.03;;;17.66;100.00
65800;BME280;52544;48.116;11.660;2022-07-30T01:47:00;95648.56;;;17.68;100.00
65800;BME280;52544;48.116;11.660;2022-07-30T01:49:27;95640.69;;;17.66;100.00
65800;BME280;52544;48.116;11.660;2022-07-30T01:51:53;95639.84;;;17.66;100.00
65800;BME280;52544;48.116;11.660;2022-07-30T01:54:20;95643.84;;;17.70;100.00
65800;BME280;52544;48.116;11.660;2022-07-30T01:56:48;95650.22;;;17.69;100.00
65800;BME280;52544;48.116;11.660;2022-07-30T01:59:18;95647.06;;;17.65;100.00
65800;BME280;52544;48.116;11.660;2022-07-30T02:01:45;95648.03;;;17.72;100.00
65800;BME280;52544;48.116;11.660;2022-07-30T02:04:10;95641.53;;;17.67;100.00
65800;BME280;52544;48.116;11.660;2022-07-30T02:06:45;95648.25;;;17.63;99.65
65800;BME280;52544;48.116;11.660;2022-07-30T02:09:12;95643.06;;;17.61;100.00
65800;BME280;52544;48.116;11.660;2022-07-30T02:11:48;95643.75;;;17.55;100.00
65800;BME280;52544;48.116;11.660;2022-07-30T02:14:40;95644.91;;;17.61;100.00
65800;BME280;52544;48.116;11.660;2022-07-30T02:17:15;95644.59;;;17.56;100.00
65800;BME280;52544;48.116;11.660;2022-07-30T02:19:42;95648.75;;;17.58;100.00
65800;BME280;52544;48.116;11.660;2022-07-30T02:22:12;95648.94;;;17.57;100.00
65800;BME280;52544;48.116;11.660;2022-07-30T02:24:41;95643.06;;;17.53;100.00
65800;BME280;52544;48.116;11.660;2022-07-30T02:27:25;95641.72;;;17.57;100.00
65800;BME280;52544;48.116;11.660;2022-07-30T02:29:54;95648.63;;;17.52;100.00
65800;BME280;52544;48.116;11.660;2022-07-30T02:32:23;95647.28;;;17.47;100.00
65800;BME280;52544;48.116;11.660;2022-07-30T02:34:53;95654.31;;;17.48;100.00
65800;BME280;52544;48.116;11.660;2022-07-30T02:37:26;95646.78;;;17.44;100.00
65800;BME280;52544;48.116;11.660;2022-07-30T02:39:53;95651.97;;;17.45;100.00
65800;BME280;52544;48.116;11.660;2022-07-30T02:42:19;95649.97;;;17.47;100.00
65800;BME280;52544;48.116;11.660;2022-07-30T02:44:47;95643.09;;;17.45;100.00
65800;BME280;52544;48.116;11.660;2022-07-30T02:47:15;95650.59;;;17.49;99.52
65800;BME280;52544;48.116;11.660;2022-07-30T02:49:41;95654.16;;;17.50;100.00
65800;BME280;52544;48.116;11.660;2022-07-30T02:52:09;95647.59;;;17.53;100.00
65800;BME280;52544;48.116;11.660;2022-07-30T02:54:40;95653.81;;;17.45;100.00
65800;BME280;52544;48.116;11.660;2022-07-30T02:57:07;95645.44;;;17.48;100.00
65800;BME280;52544;48.116;11.660;2022-07-30T02:59:35;95652.13;;;17.44;100.00
65800;BME280;52544;48.116;11.660;2022-07-30T03:02:02;95647.47;;;17.46;100.00
65800;BME280;52544;48.116;11.660;2022-07-30T03:04:30;95647.63;;;17.44;100.00
65800;BME280;52544;48.116;11.660;2022-07-30T03:06:58;95645.97;;;17.43;100.00
65800;BME280;52544;48.116;11.660;2022-07-30T03:09:25;95644.63;;;17.39;100.00
65800;BME280;52544;48.116;11.660;2022-07-30T03:11:52;95643.13;;;17.37;100.00
65800;BME280;52544;48.116;11.660;2022-07-30T03:14:19;95636.94;;;17.36;100.00
65800;BME280;52544;48.116;11.660;2022-07-30T03:16:47;95634.75;;;17.40;100.00
65800;BME280;52544;48.116;11.660;2022-07-30T03:19:16;95630.25;;;17.40;100.00
65800;BME280;52544;48.116;11.660;2022-07-30T03:21:44;95638.13;;;17.42;100.00
65800;BME280;52544;48.116;11.660;2022-07-30T03:24:12;95628.09;;;17.36;100.00
65800;BME280;52544;48.116;11.660;2022-07-30T03:26:39;95635.78;;;17.31;100.00
65800;BME280;52544;48.116;11.660;2022-07-30T03:29:07;95627.75;;;17.39;99.32
65800;BME280;52544;48.116;11.660;2022-07-30T03:31:34;95633.94;;;17.39;97.96
65800;BME280;52544;48.116;11.660;2022-07-30T03:34:01;95636.09;;;17.44;99.19
65800;BME280;52544;48.116;11.660;2022-07-30T03:36:27;95639.94;;;17.41;100.00
65800;BME280;52544;48.116;11.660;2022-07-30T03:38:53;95643.81;;;17.39;100.00
65800;BME280;52544;48.116;11.660;2022-07-30T03:41:20;95643.81;;;17.39;100.00
65800;BME280;52544;48.116;11.660;2022-07-30T03:43:47;95642.94;;;17.46;100.00
65800;BME280;52544;48.116;11.660;2022-07-30T03:46:13;95649.47;;;17.44;100.00
65800;BME280;52544;48.116;11.660;2022-07-30T03:48:40;95646.78;;;17.44;100.00
65800;BME280;52544;48.116;11.660;2022-07-30T03:51:06;95643.31;;;17.35;100.00
65800;BME280;52544;48.116;11.660;2022-07-30T03:53:34;95658.19;;;17.38;100.00
65800;BME280;52544;48.116;11.660;2022-07-30T03:56:00;95648.50;;;17.29;100.00
65800;BME280;52544;48.116;11.660;2022-07-30T03:58:26;95650.84;;;17.32;100.00
65800;BME280;52544;48.116;11.660;2022-07-30T04:00:51;95647.16;;;17.33;100.00
65800;BME280;52544;48.116;11.660;2022-07-30T04:03:28;95655.16;;;17.33;100.00
65800;BME280;52544;48.116;11.660;2022-07-30T04:05:54;95654.00;;;17.35;100.00
65800;BME280;52544;48.116;11.660;2022-07-30T04:08:19;95654.19;;;17.34;100.00
65800;BME280;52544;48.116;11.660;2022-07-30T04:10:45;95665.03;;;17.32;100.00
65800;BME280;52544;48.116;11.660;2022-07-30T04:13:10;95672.53;;;17.37;100.00
65800;BME280;52544;48.116;11.660;2022-07-30T04:16:03;95674.41;;;17.36;100.00
65800;BME280;52544;48.116;11.660;2022-07-30T04:18:36;95677.06;;;17.36;100.00
65800;BME280;52544;48.116;11.660;2022-07-30T04:21:04;95676.56;;;17.33;100.00
65800;BME280;52544;48.116;11.660;2022-07-30T04:23:32;95683.94;;;17.31;100.00
65800;BME280;52544;48.116;11.660;2022-07-30T04:25:58;95689.63;;;17.28;100.00
65800;BME280;52544;48.116;11.660;2022-07-30T04:28:26;95693.97;;;17.29;100.00
65800;BME280;52544;48.116;11.660;2022-07-30T04:30:52;95694.97;;;17.28;100.00
65800;BME280;52544;48.116;11.660;2022-07-30T04:33:18;95696.47;;;17.38;100.00
65800;BME280;52544;48.116;11.660;2022-07-30T04:35:43;95708.34;;;17.36;100.00
65800;BME280;52544;48.116;11.660;2022-07-30T04:38:09;95708.00;;;17.39;100.00
65800;BME280;52544;48.116;11.660;2022-07-30T04:40:35;95705.97;;;17.41;100.00
65800;BME280;52544;48.116;11.660;2022-07-30T04:43:00;95710.16;;;17.43;100.00
65800;BME280;52544;48.116;11.660;2022-07-30T04:45:26;95713.34;;;17.47;100.00
65800;BME280;52544;48.116;11.660;2022-07-30T04:47:51;95708.63;;;17.49;100.00
65800;BME280;52544;48.116;11.660;2022-07-30T04:50:22;95711.00;;;17.44;100.00
65800;BME280;52544;48.116;11.660;2022-07-30T04:52:49;95720.34;;;17.48;100.00
65800;BME280;52544;48.116;11.660;2022-07-30T04:55:17;95719.00;;;17.52;100.00
65800;BME280;52544;48.116;11.660;2022-07-30T04:57:45;95716.97;;;17.54;100.00
65800;BME280;52544;48.116;11.660;2022-07-30T05:00:12;95713.63;;;17.60;99.66
65800;BME280;52544;48.116;11.660;2022-07-30T05:02:39;95717.31;;;17.67;98.94
65800;BME280;52544;48.116;11.660;2022-07-30T05:05:06;95713.78;;;17.67;98.04
65800;BME280;52544;48.116;11.660;2022-07-30T05:07:33;95715.78;;;17.73;98.17
65800;BME280;52544;48.116;11.660;2022-07-30T05:09:58;95715.97;;;17.71;98.56
65800;BME280;52544;48.116;11.660;2022-07-30T05:12:34;95716.63;;;17.73;98.77
65800;BME280;52544;48.116;11.660;2022-07-30T05:15:03;95712.28;;;17.72;99.12
65800;BME280;52544;48.116;11.660;2022-07-30T05:17:28;95716.81;;;17.80;98.96
65800;BME280;52544;48.116;11.660;2022-07-30T05:19:54;95721.28;;;17.80;98.58
65800;BME280;52544;48.116;11.660;2022-07-30T05:22:19;95726.31;;;17.83;97.05
65800;BME280;52544;48.116;11.660;2022-07-30T05:24:45;95719.94;;;17.84;96.91
65800;BME280;52544;48.116;11.660;2022-07-30T05:27:10;95722.78;;;17.90;97.62
65800;BME280;52544;48.116;11.660;2022-07-30T05:29:35;95729.44;;;18.03;96.77
65800;BME280;52544;48.116;11.660;2022-07-30T05:32:01;95723.56;;;18.07;94.96
65800;BME280;52544;48.116;11.660;2022-07-30T05:34:26;95727.22;;;18.14;93.71
65800;BME280;52544;48.116;11.660;2022-07-30T05:36:52;95736.22;;;18.13;91.84
65800;BME280;52544;48.116;11.660;2022-07-30T05:39:17;95725.88;;;18.10;92.83
65800;BME280;52544;48.116;11.660;2022-07-30T05:41:43;95729.56;;;18.09;94.29
65800;BME280;52544;48.116;11.660;2022-07-30T05:44:08;95726.22;;;18.07;93.83
65800;BME280;52544;48.116;11.660;2022-07-30T05:46:34;95728.38;;;18.12;93.91
65800;BME280;52544;48.116;11.660;2022-07-30T05:48:59;95732.56;;;18.14;93.36
65800;BME280;52544;48.116;11.660;2022-07-30T05:51:25;95733.56;;;18.13;92.57
65800;BME280;52544;48.116;11.660;2022-07-30T05:53:50;95739.06;;;18.20;89.83
65800;BME280;52544;48.116;11.660;2022-07-30T05:56:16;95739.28;;;18.10;89.96
65800;BME280;52544;48.116;11.660;2022-07-30T05:58:41;95735.25;;;18.14;89.81
65800;BME280;52544;48.116;11.660;2022-07-30T06:01:07;95737.25;;;18.12;90.24
65800;BME280;52544;48.116;11.660;2022-07-30T06:03:32;95740.13;;;18.11;88.00
65800;BME280;52544;48.116;11.660;2022-07-30T06:05:59;95736.25;;;18.05;88.30
65800;BME280;52544;48.116;11.660;2022-07-30T06:08:24;95748.31;;;18.09;88.40
65800;BME280;52544;48.116;11.660;2022-07-30T06:10:49;95741.50;;;17.98;89.58
65800;BME280;52544;48.116;11.660;2022-07-30T06:13:15;95748.00;;;17.96;89.05
65800;BME280;52544;48.116;11.660;2022-07-30T06:15:40;95745.84;;;17.99;89.56
65800;BME280;52544;48.116;11.660;2022-07-30T06:18:06;95743.16;;;17.99;89.46
65800;BME280;52544;48.116;11.660;2022-07-30T06:20:31;95758.38;;;18.07;88.32
65800;BME280;52544;48.116;11.660;2022-07-30T06:22:56;95755.69;;;18.07;88.32
65800;BME280;52544;48.116;11.660;2022-07-30T06:25:22;95761.69;;;18.09;88.21
65800;BME280;52544;48.116;11.660;2022-07-30T06:27:47;95771.03;;;18.13;88.13
65800;BME280;52544;48.116;11.660;2022-07-30T06:30:13;95767.16;;;18.24;86.82
65800;BME280;52544;48.116;11.660;2022-07-30T06:32:38;95770.53;;;18.18;87.48
65800;BME280;52544;48.116;11.660;2022-07-30T06:35:04;95766.00;;;18.27;85.73
65800;BME280;52544;48.116;11.660;2022-07-30T06:37:30;95766.94;;;18.34;85.84
65800;BME280;52544;48.116;11.660;2022-07-30T06:39:55;95766.47;;;18.30;86.00
65800;BME280;52544;48.116;11.660;2022-07-30T06:42:21;95773.97;;;18.35;87.59
65800;BME280;52544;48.116;11.660;2022-07-30T06:44:46;95779.03;;;18.30;88.47
65800;BME280;52544;48.116;11.660;2022-07-30T06:47:12;95779.69;;;18.32;87.36
65800;BME280;52544;48.116;11.660;2022-07-30T06:49:37;95788.25;;;18.27;86.46
65800;BME280;52544;48.116;11.660;2022-07-30T06:52:03;95792.56;;;18.36;86.12
65800;BME280;52544;48.116;11.660;2022-07-30T06:54:29;95791.41;;;18.31;86.29
65800;BME280;52544;48.116;11.660;2022-07-30T06:56:55;95796.09;;;18.37;85.95
65800;BME280;52544;48.116;11.660;2022-07-30T06:59:20;95791.72;;;18.44;84.39
65800;BME280;52544;48.116;11.660;2022-07-30T07:01:45;95803.41;;;18.43;84.07
65800;BME280;52544;48.116;11.660;2022-07-30T07:04:11;95806.75;;;18.45;84.32
65800;BME280;52544;48.116;11.660;2022-07-30T07:06:37;95801.41;;;18.45;83.98
65800;BME280;52544;48.116;11.660;2022-07-30T07:09:03;95798.53;;;18.46;82.89
65800;BME280;52544;48.116;11.660;2022-07-30T07:11:29;95811.41;;;18.51;83.72
65800;BME280;52544;48.116;11.660;2022-07-30T07:13:54;95811.72;;;18.56;81.83
65800;BME280;52544;48.116;11.660;2022-07-30T07:16:19;95805.97;;;18.67;82.59
65800;BME280;52544;48.116;11.660;2022-07-30T07:18:49;95812.47;;;18.81;81.54
65800;BME280;52544;48.116;11.660;2022-07-30T07:21:14;95802.47;;;18.98;79.87
65800;BME280;52544;48.116;11.660;2022-07-30T07:23:40;95804.41;;;19.12;79.85
65800;BME280;52544;48.116;11.660;2022-07-30T07:26:05;95801.34;;;19.15;79.65
65800;BME280;52544;48.116;11.660;2022-07-30T07:28:30;95799.16;;;19.19;79.61
65800;BME280;52544;48.116;11.660;2022-07-30T07:30:56;95803.56;;;19.35;80.02
65800;BME280;52544;48.116;11.660;2022-07-30T07:33:21;95795.53;;;19.49;79.36
65800;BME280;52544;48.116;11.660;2022-07-30T07:35:47;95795.91;;;19.69;76.66
65800;BME280;52544;48.116;11.660;2022-07-30T07:38:12;95789.63;;;19.92;76.88
65800;BME280;52544;48.116;11.660;2022-07-30T07:40:38;95794.13;;;20.14;74.66
65800;BME280;52544;48.116;11.660;2022-07-30T07:43:03;95794.00;;;20.37;74.08
65800;BME280;52544;48.116;11.660;2022-07-30T07:45:30;95792.63;;;20.56;73.91
65800;BME280;52544;48.116;11.660;2022-07-30T07:47:55;95791.50;;;20.65;71.36
65800;BME280;52544;48.116;11.660;2022-07-30T07:50:21;95786.78;;;20.89;70.35
65800;BME280;52544;48.116;11.660;2022-07-30T07:52:47;95789.13;;;20.77;70.48
65800;BME280;52544;48.116;11.660;2022-07-30T07:55:12;95782.81;;;20.85;69.40
65800;BME280;52544;48.116;11.660;2022-07-30T07:57:43;95773.53;;;20.87;70.01
65800;BME280;52544;48.116;11.660;2022-07-30T08:00:11;95781.19;;;21.05;68.63
65800;BME280;52544;48.116;11.660;2022-07-30T08:02:37;95774.66;;;21.14;68.66
65800;BME280;52544;48.116;11.660;2022-07-30T08:05:03;95767.16;;;21.10;69.38
65800;BME280;52544;48.116;11.660;2022-07-30T08:07:30;95781.19;;;21.05;69.62
65800;BME280;52544;48.116;11.660;2022-07-30T08:09:56;95785.94;;;21.03;68.74
65800;BME280;52544;48.116;11.660;2022-07-30T08:12:22;95794.25;;;21.08;68.88
65800;BME280;52544;48.116;11.660;2022-07-30T08:14:47;95783.41;;;21.23;67.86
65800;BME280;52544;48.116;11.660;2022-07-30T08:17:13;95781.47;;;21.32;66.26
65800;BME280;52544;48.116;11.660;2022-07-30T08:19:39;95786.09;;;21.38;66.74
65800;BME280;52544;48.116;11.660;2022-07-30T08:22:04;95781.59;;;21.45;67.02
65800;BME280;52544;48.116;11.660;2022-07-30T08:24:29;95792.81;;;21.49;65.67
65800;BME280;52544;48.116;11.660;2022-07-30T08:26:55;95784.09;;;21.46;66.28
65800;BME280;52544;48.116;11.660;2022-07-30T08:29:21;95795.69;;;21.47;66.68
65800;BME280;52544;48.116;11.660;2022-07-30T08:31:46;95794.16;;;21.38;65.64
65800;BME280;52544;48.116;11.660;2022-07-30T08:34:12;95796.91;;;21.44;64.44
65800;BME280;52544;48.116;11.660;2022-07-30T08:36:38;95798.72;;;21.37;64.88
65800;BME280;52544;48.116;11.660;2022-07-30T08:39:03;95791.53;;;21.44;64.85
65800;BME280;52544;48.116;11.660;2022-07-30T08:41:29;95798.84;;;21.51;62.36
65800;BME280;52544;48.116;11.660;2022-07-30T08:43:59;95788.25;;;21.49;63.57
65800;BME280;52544;48.116;11.660;2022-07-30T08:46:26;95788.75;;;21.59;64.82
65800;BME280;52544;48.116;11.660;2022-07-30T08:48:53;95780.03;;;21.57;60.63
65800;BME280;52544;48.116;11.660;2022-07-30T08:51:19;95793.25;;;21.52;61.60
65800;BME280;52544;48.116;11.660;2022-07-30T08:53:46;95792.66;;;21.57;60.80
65800;BME280;52544;48.116;11.660;2022-07-30T08:56:12;95796.31;;;21.49;60.97
65800;BME280;52544;48.116;11.660;2022-07-30T08:58:38;95794.22;;;21.44;63.04
65800;BME280;52544;48.116;11.660;2022-07-30T09:01:04;95787.28;;;21.57;61.23
65800;BME280;52544;48.116;11.660;2022-07-30T09:03:30;95784.41;;;21.58;62.35
65800;BME280;52544;48.116;11.660;2022-07-30T09:05:56;95784.50;;;21.71;59.95
65800;BME280;52544;48.116;11.660;2022-07-30T09:08:22;95793.47;;;21.79;62.54
65800;BME280;52544;48.116;11.660;2022-07-30T09:10:47;95788.34;;;21.84;61.89
65800;BME280;52544;48.116;11.660;2022-07-30T09:13:24;95797.50;;;21.89;60.26
65800;BME280;52544;48.116;11.660;2022-07-30T09:15:50;95792.56;;;21.93;58.37
65800;BME280;52544;48.116;11.660;2022-07-30T09:18:42;95795.94;;;22.02;59.92
65800;BME280;52544;48.116;11.660;2022-07-30T09:21:25;95787.13;;;22.14;58.93
65800;BME280;52544;48.116;11.660;2022-07-30T09:26:19;95798.75;;;22.21;55.70
65800;BME280;52544;48.116;11.660;2022-07-30T09:28:44;95795.06;;;22.29;56.96
65800;BME280;52544;48.116;11.660;2022-07-30T09:31:10;95792.63;;;22.34;55.66
65800;BME280;52544;48.116;11.660;2022-07-30T09:33:38;95797.22;;;22.40;57.62
65800;BME280;52544;48.116;11.660;2022-07-30T09:36:14;95792.72;;;22.54;55.46
65800;BME280;52544;48.116;11.660;2022-07-30T09:38:46;95787.38;;;22.67;54.24
65800;BME280;52544;48.116;11.660;2022-07-30T09:41:13;95798.16;;;22.61;54.74
65800;BME280;52544;48.116;11.660;2022-07-30T09:43:50;95799.16;;;22.60;54.69
65800;BME280;52544;48.116;11.660;2022-07-30T09:46:16;95796.56;;;22.73;54.65
65800;BME280;52544;48.116;11.660;2022-07-30T09:48:42;95800.91;;;22.74;53.16
65800;BME280;52544;48.116;11.660;2022-07-30T09:51:10;95800.72;;;22.82;51.90
65800;BME280;52544;48.116;11.660;2022-07-30T09:53:35;95799.47;;;22.78;52.78
65800;BME280;52544;48.116;11.660;2022-07-30T09:56:27;95793.06;;;22.86;54.70
65800;BME280;52544;48.116;11.660;2022-07-30T09:58:53;95781.50;;;22.92;52.69
65800;BME280;52544;48.116;11.660;2022-07-30T10:01:20;95787.09;;;22.97;53.82
65800;BME280;52544;48.116;11.660;2022-07-30T10:03:46;95797.50;;;23.00;50.89
65800;BME280;52544;48.116;11.660;2022-07-30T10:06:11;95778.03;;;23.18;51.67
65800;BME280;52544;48.116;11.660;2022-07-30T10:08:42;95785.06;;;23.19;52.60
65800;BME280;52544;48.116;11.660;2022-07-30T10:11:10;95785.53;;;23.29;52.39
65800;BME280;52544;48.116;11.660;2022-07-30T10:13:37;95780.97;;;23.43;54.16
65800;BME280;52544;48.116;11.660;2022-07-30T10:16:03;95790.91;;;23.36;51.17
65800;BME280;52544;48.116;11.660;2022-07-30T10:18:29;95781.59;;;23.52;50.21
65800;BME280;52544;48.116;11.660;2022-07-30T10:20:55;95784.72;;;23.55;49.82
65800;BME280;52544;48.116;11.660;2022-07-30T10:23:21;95780.41;;;23.67;49.83
65800;BME280;52544;48.116;11.660;2022-07-30T10:25:49;95788.91;;;23.78;49.23
65800;BME280;52544;48.116;11.660;2022-07-30T10:28:15;95781.81;;;23.57;48.04
65800;BME280;52544;48.116;11.660;2022-07-30T10:30:42;95783.28;;;23.59;48.80
65800;BME280;52544;48.116;11.660;2022-07-30T10:33:08;95785.97;;;23.53;49.92
65800;BME280;52544;48.116;11.660;2022-07-30T10:35:34;95791.16;;;23.54;46.77
65800;BME280;52544;48.116;11.660;2022-07-30T10:38:00;95786.38;;;23.50;47.45
65800;BME280;52544;48.116;11.660;2022-07-30T10:40:29;95791.78;;;23.56;44.42
65800;BME280;52544;48.116;11.660;2022-07-30T10:48:47;95789.34;;;23.75;45.25
65800;BME280;52544;48.116;11.660;2022-07-30T10:51:13;95783.47;;;23.51;45.89
65800;BME280;52544;48.116;11.660;2022-07-30T10:53:41;95785.56;;;23.62;46.30
65800;BME280;52544;48.116;11.660;2022-07-30T10:56:19;95786.00;;;23.66;46.72
65800;BME280;52544;48.116;11.660;2022-07-30T10:58:58;95793.44;;;23.57;45.21
65800;BME280;52544;48.116;11.660;2022-07-30T11:01:24;95783.44;;;23.44;47.29
65800;BME280;52544;48.116;11.660;2022-07-30T11:04:18;95782.91;;;23.76;47.57
65800;BME280;52544;48.116;11.660;2022-07-30T11:06:44;95789.31;;;24.01;46.16
65800;BME280;52544;48.116;11.660;2022-07-30T11:09:35;95776.81;;;24.27;45.52
65800;BME280;52544;48.116;11.660;2022-07-30T11:12:05;95781.00;;;24.09;43.59
65800;BME280;52544;48.116;11.660;2022-07-30T11:20:16;95782.44;;;24.83;43.35
65800;BME280;52544;48.116;11.660;2022-07-30T11:22:45;95779.00;;;25.08;41.29
65800;BME280;52544;48.116;11.660;2022-07-30T11:27:49;95772.84;;;25.32;41.14
65800;BME280;52544;48.116;11.660;2022-07-30T11:32:41;95767.38;;;25.71;41.24
65800;BME280;52544;48.116;11.660;2022-07-30T11:37:58;95766.31;;;25.40;42.93
65800;BME280;52544;48.116;11.660;2022-07-30T11:43:20;95771.41;;;25.86;43.96
65800;BME280;52544;48.116;11.660;2022-07-30T11:45:47;95780.09;;;25.95;41.65
65800;BME280;52544;48.116;11.660;2022-07-30T11:48:15;95773.41;;;25.98;40.19
65800;BME280;52544;48.116;11.660;2022-07-30T11:50:41;95769.78;;;26.04;39.22
65800;BME280;52544;48.116;11.660;2022-07-30T11:53:19;95766.81;;;25.87;40.21
65800;BME280;52544;48.116;11.660;2022-07-30T11:55:52;95785.84;;;25.80;40.93
65800;BME280;52544;48.116;11.660;2022-07-30T11:58:27;95785.06;;;25.98;41.62
65800;BME280;52544;48.116;11.660;2022-07-30T12:00:54;95789.00;;;26.02;40.14
65800;BME280;52544;48.116;11.660;2022-07-30T12:03:22;95787.28;;;25.51;40.08
65800;BME280;52544;48.116;11.660;2022-07-30T12:05:48;95778.97;;;25.14;41.20
65800;BME280;52544;48.116;11.660;2022-07-30T12:08:15;95789.75;;;24.76;42.26
65800;BME280;52544;48.116;11.660;2022-07-30T12:10:41;95793.34;;;24.63;42.69
65800;BME280;52544;48.116;11.660;2022-07-30T12:15:35;95792.22;;;24.91;39.69
65800;BME280;52544;48.116;11.660;2022-07-30T12:18:01;95785.66;;;25.05;41.15
65800;BME280;52544;48.116;11.660;2022-07-30T12:20:27;95787.66;;;25.30;40.24
65800;BME280;52544;48.116;11.660;2022-07-30T12:22:54;95777.13;;;25.47;39.57
65800;BME280;52544;48.116;11.660;2022-07-30T12:25:20;95789.31;;;25.62;39.80
65800;BME280;52544;48.116;11.660;2022-07-30T12:27:47;95776.53;;;25.69;40.13
65800;BME280;52544;48.116;11.660;2022-07-30T12:30:15;95782.22;;;25.93;39.66
65800;BME280;52544;48.116;11.660;2022-07-30T12:32:44;95777.91;;;26.04;37.35
65800;BME280;52544;48.116;11.660;2022-07-30T12:35:10;95789.69;;;26.16;35.99
65800;BME280;52544;48.116;11.660;2022-07-30T12:37:36;95787.50;;;26.06;37.18
65800;BME280;52544;48.116;11.660;2022-07-30T12:40:13;95778.50;;;26.12;36.43
65800;BME280;52544;48.116;11.660;2022-07-30T12:42:52;95780.16;;;26.32;36.47
65800;BME280;52544;48.116;11.660;2022-07-30T12:45:25;95777.91;;;26.04;36.68
65800;BME280;52544;48.116;11.660;2022-07-30T12:47:51;95776.53;;;26.20;36.91
65800;BME280;52544;48.116;11.660;2022-07-30T12:50:16;95772.09;;;26.43;36.81
65800;BME280;52544;48.116;11.660;2022-07-30T12:52:47;95769.56;;;26.49;35.18
65800;BME280;52544;48.116;11.660;2022-07-30T12:55:14;95773.13;;;26.49;34.11
65800;BME280;52544;48.116;11.660;2022-07-30T12:57:58;95765.44;;;26.64;35.86
65800;BME280;52544;48.116;11.660;2022-07-30T13:00:30;95772.78;;;26.76;35.12
65800;BME280;52544;48.116;11.660;2022-07-30T13:02:56;95775.44;;;26.82;36.07
65800;BME280;52544;48.116;11.660;2022-07-30T13:05:47;95768.75;;;26.48;36.62
65800;BME280;52544;48.116;11.660;2022-07-30T13:08:14;95766.88;;;26.49;33.97
65800;BME280;52544;48.116;11.660;2022-07-30T13:10:58;95761.06;;;26.63;37.55
65800;BME280;52544;48.116;11.660;2022-07-30T13:13:25;95772.41;;;26.90;35.82
65800;BME280;52544;48.116;11.660;2022-07-30T13:16:02;95765.13;;;27.21;36.14
65800;BME280;52544;48.116;11.660;2022-07-30T13:18:29;95759.63;;;27.28;34.08